Time;durP1;ratioP1;P1;durP2;ratioP2;P2;SDS_P1;SDS_P2;PMS_P1;PMS_P2;Temp;Humidity;BMP_temperature;BMP_pressure;BME280_temperature;BME280_humidity;BME280_pressure;Samples;Min_cycle;Max_cycle;Signal;HPM_P1;HPM_P2
2022/03/22 00:01:25;;;;;;;61.33;35.08;;;4.10;99.90;;;;;;5057734;28;20046;-75
2022/03/22 00:03:52;;;;;;;63.15;34.55;;;4.10;99.90;;;;;;5057364;28;20386;-75
2022/03/22 00:06:18;;;;;;;59.45;34.22;;;4.10;99.90;;;;;;5057814;28;20493;-75
2022/03/22 00:08:47;;;;;;;60.40;34.17;;;4.10;99.90;;;;;;5057653;28;20046;-75
2022/03/22 00:11:13;;;;;;;66.28;36.78;;;4.20;99.90;;;;;;5057726;28;20123;-75
2022/03/22 00:13:40;;;;;;;60.05;35.75;;;4.10;99.90;;;;;;5057694;28;20040;-75
2022/03/22 00:16:07;;;;;;;58.85;35.28;;;4.20;99.90;;;;;;5057805;28;20039;-75
2022/03/22 00:18:34;;;;;;;64.65;37.25;;;4.20;99.90;;;;;;5057564;28;20123;-75
2022/03/22 00:21:00;;;;;;;62.25;36.53;;;4.20;99.90;;;;;;5058172;28;20074;-75
2022/03/22 00:23:26;;;;;;;60.22;34.95;;;4.20;99.90;;;;;;5074930;28;20490;-75
2022/03/22 00:25:52;;;;;;;58.78;35.20;;;4.20;99.90;;;;;;5057715;28;20048;-77
2022/03/22 00:28:19;;;;;;;60.38;35.50;;;4.20;99.90;;;;;;5056736;28;20036;-76
2022/03/22 00:30:45;;;;;;;59.13;34.10;;;4.30;99.90;;;;;;5072862;28;20079;-76
2022/03/22 00:33:11;;;;;;;60.05;35.03;;;4.20;99.90;;;;;;5054944;28;20466;-76
2022/03/22 00:35:38;;;;;;;62.00;36.25;;;4.20;99.90;;;;;;5056831;28;20036;-77
2022/03/22 00:38:16;;;;;;;59.58;35.80;;;4.20;99.90;;;;;;5073571;28;20409;-76
2022/03/22 00:40:43;;;;;;;61.08;36.83;;;4.20;99.90;;;;;;5072675;28;20048;-76
2022/03/22 00:43:09;;;;;;;61.40;36.08;;;4.20;99.90;;;;;;5073156;28;20044;-76
2022/03/22 00:45:37;;;;;;;60.00;35.97;;;4.20;99.90;;;;;;5056771;28;20515;-76
2022/03/22 00:48:05;;;;;;;59.35;35.85;;;4.20;99.90;;;;;;5056382;28;20055;-77
2022/03/22 00:50:33;;;;;;;58.97;36.33;;;4.30;99.90;;;;;;5056741;28;20028;-76
2022/03/22 00:52:59;;;;;;;59.88;35.70;;;4.20;99.90;;;;;;5056419;28;20505;-77
2022/03/22 00:55:27;;;;;;;64.50;36.33;;;4.30;99.90;;;;;;5073322;28;20036;-77
2022/03/22 00:57:56;;;;;;;63.72;37.72;;;4.30;99.90;;;;;;5056233;28;20048;-76
2022/03/22 01:00:26;;;;;;;59.47;36.38;;;4.30;99.90;;;;;;5056789;28;20036;-77
2022/03/22 01:02:55;;;;;;;66.10;36.75;;;4.30;99.90;;;;;;5056014;28;20340;-76
2022/03/22 01:05:22;;;;;;;61.65;36.83;;;4.30;99.90;;;;;;5073321;28;20040;-76
2022/03/22 01:07:52;;;;;;;62.08;35.80;;;4.30;99.90;;;;;;5056165;28;20441;-76
2022/03/22 01:10:19;;;;;;;58.35;36.30;;;4.30;99.90;;;;;;5072911;28;20040;-75
2022/03/22 01:12:47;;;;;;;59.53;35.33;;;4.30;99.90;;;;;;5055807;28;20035;-76
2022/03/22 01:15:15;;;;;;;62.10;35.78;;;4.30;99.90;;;;;;5056146;28;20051;-77
2022/03/22 01:17:41;;;;;;;52.55;33.58;;;4.30;99.90;;;;;;5056642;28;20040;-76
2022/03/22 01:20:10;;;;;;;59.40;34.83;;;4.30;99.90;;;;;;5056311;28;20084;-76
2022/03/22 01:22:41;;;;;;;61.97;35.30;;;4.20;99.90;;;;;;5055625;28;20520;-76
2022/03/22 01:25:09;;;;;;;66.28;37.78;;;4.30;99.90;;;;;;5055986;28;20442;-76
2022/03/22 01:27:36;;;;;;;61.35;35.97;;;4.30;99.90;;;;;;5056152;28;20119;-76
2022/03/22 01:30:07;;;;;;;57.83;35.70;;;4.20;99.90;;;;;;5055927;28;20078;-77
2022/03/22 01:32:34;;;;;;;55.80;34.35;;;4.20;99.90;;;;;;5056099;28;20090;-76
2022/03/22 01:35:03;;;;;;;57.53;35.50;;;4.30;99.90;;;;;;5056145;28;20047;-77
2022/03/22 01:37:29;;;;;;;63.63;36.10;;;4.30;99.90;;;;;;5090901;28;20040;-76
2022/03/22 01:39:55;;;;;;;58.00;35.47;;;4.20;99.90;;;;;;5056440;28;20048;-76
2022/03/22 01:42:21;;;;;;;61.88;34.92;;;4.20;99.90;;;;;;5072595;28;20054;-76
2022/03/22 01:44:48;;;;;;;59.17;35.15;;;4.20;99.90;;;;;;5036107;28;20044;-76
2022/03/22 01:47:17;;;;;;;57.55;35.15;;;4.20;99.90;;;;;;5036456;28;20422;-76
2022/03/22 01:49:43;;;;;;;54.63;34.22;;;4.20;99.90;;;;;;5068834;28;20482;-76
2022/03/22 01:52:14;;;;;;;60.20;35.22;;;4.20;99.90;;;;;;5057085;28;20077;-76
2022/03/22 01:54:40;;;;;;;58.25;35.03;;;4.20;99.90;;;;;;5059198;28;20101;-77
2022/03/22 01:57:07;;;;;;;55.00;35.50;;;4.20;99.90;;;;;;5059743;28;20482;-76
2022/03/22 01:59:33;;;;;;;61.00;34.70;;;4.20;99.90;;;;;;5059208;28;20043;-76
2022/03/22 02:07:35;;;;;;;55.13;34.42;;;4.20;99.90;;;;;;5076245;28;20052;-77
2022/03/22 02:10:01;;;;;;;54.72;34.42;;;4.10;99.90;;;;;;5059220;28;20051;-76
2022/03/22 02:12:27;;;;;;;54.72;35.03;;;4.10;99.90;;;;;;5075723;28;20627;-76
2022/03/22 02:14:52;;;;;;;51.92;33.70;;;4.00;99.90;;;;;;5059541;28;20045;-76
2022/03/22 02:17:18;;;;;;;60.60;36.40;;;4.00;99.90;;;;;;5076146;28;20035;-76
2022/03/22 02:19:46;;;;;;;61.83;37.80;;;4.00;99.90;;;;;;5079937;28;20036;-77
2022/03/22 02:22:16;;;;;;;63.40;37.30;;;4.00;99.90;;;;;;5069084;28;20085;-77
2022/03/22 02:24:42;;;;;;;64.45;37.33;;;3.90;99.90;;;;;;5071469;28;20443;-77
2022/03/22 02:27:09;;;;;;;66.78;37.80;;;3.90;99.90;;;;;;5069324;28;20044;-77
2022/03/22 02:29:36;;;;;;;56.00;35.97;;;3.90;99.90;;;;;;5061500;28;20051;-78
2022/03/22 02:32:03;;;;;;;66.88;37.80;;;3.90;99.90;;;;;;5085301;28;20108;-77
2022/03/22 02:34:29;;;;;;;63.53;36.65;;;3.90;99.90;;;;;;5049688;28;20395;-77
2022/03/22 02:36:55;;;;;;;64.10;37.15;;;3.90;99.90;;;;;;5066049;28;20157;-77
2022/03/22 02:39:21;;;;;;;60.65;36.67;;;3.90;99.90;;;;;;5060767;28;20067;-78
2022/03/22 02:41:51;;;;;;;65.95;37.22;;;3.90;99.90;;;;;;5101844;28;20043;-76
2022/03/22 02:44:19;;;;;;;58.60;37.22;;;3.90;99.90;;;;;;5075553;28;20075;-77
2022/03/22 02:46:46;;;;;;;61.03;36.63;;;3.90;99.90;;;;;;5075993;28;20482;-78
2022/03/22 02:49:13;;;;;;;58.38;36.17;;;3.80;99.90;;;;;;5059092;28;20044;-78
2022/03/22 02:51:41;;;;;;;62.75;37.92;;;3.90;99.90;;;;;;5094392;28;20059;-78
2022/03/22 02:54:07;;;;;;;64.55;37.13;;;3.80;99.90;;;;;;5075775;28;20048;-78
2022/03/22 02:56:33;;;;;;;56.65;35.88;;;3.80;99.90;;;;;;5058696;28;20051;-75
2022/03/22 02:59:00;;;;;;;61.90;36.25;;;3.80;99.90;;;;;;5057916;28;20044;-75
2022/03/22 03:01:26;;;;;;;63.75;36.03;;;3.80;99.90;;;;;;5058315;28;20068;-75
2022/03/22 03:03:52;;;;;;;62.00;37.65;;;3.80;99.90;;;;;;5074266;28;20079;-75
2022/03/22 03:06:18;;;;;;;60.67;37.42;;;3.80;99.90;;;;;;5058535;28;20043;-75
2022/03/22 03:08:44;;;;;;;58.15;35.45;;;3.70;99.90;;;;;;5074493;28;20063;-75
2022/03/22 03:11:09;;;;;;;61.05;37.28;;;3.70;99.90;;;;;;5058092;28;20471;-75
2022/03/22 03:16:19;;;;;;;59.13;36.03;;;3.70;99.90;;;;;;5074607;28;20043;-75
2022/03/22 03:18:45;;;;;;;62.80;36.15;;;3.70;99.90;;;;;;5092588;28;20039;-75
2022/03/22 03:21:11;;;;;;;61.75;36.13;;;3.70;99.90;;;;;;5057729;28;20032;-76
2022/03/22 03:23:37;;;;;;;66.10;36.10;;;3.70;99.90;;;;;;5057289;28;20059;-76
2022/03/22 03:26:03;;;;;;;59.25;37.28;;;3.70;99.90;;;;;;5057806;28;20044;-75
2022/03/22 03:28:28;;;;;;;55.72;35.45;;;3.70;99.90;;;;;;5057262;28;20046;-75
2022/03/22 03:30:54;;;;;;;62.42;37.35;;;3.60;99.90;;;;;;5058054;28;20058;-75
2022/03/22 03:33:20;;;;;;;61.92;37.30;;;3.60;99.90;;;;;;5057052;28;20036;-75
2022/03/22 03:35:45;;;;;;;61.70;37.30;;;3.60;99.90;;;;;;5057655;28;20039;-76
2022/03/22 03:38:11;;;;;;;59.92;36.70;;;3.60;99.90;;;;;;5073949;28;20047;-75
2022/03/22 03:43:21;;;;;;;64.07;36.53;;;3.60;99.90;;;;;;5073826;28;20139;-77
2022/03/22 03:48:32;;;;;;;62.95;38.47;;;3.60;99.90;;;;;;5073851;28;20078;-76
2022/03/22 03:50:58;;;;;;;70.50;39.10;;;3.60;99.90;;;;;;5057239;28;20066;-77
2022/03/22 03:53:24;;;;;;;59.08;36.13;;;3.60;99.90;;;;;;5073453;28;20035;-76
2022/03/22 03:55:49;;;;;;;56.80;37.20;;;3.60;99.90;;;;;;5074904;28;20040;-77
2022/03/22 03:58:15;;;;;;;68.18;38.70;;;3.70;99.90;;;;;;5079258;28;20063;-76
2022/03/22 04:00:41;;;;;;;64.70;37.95;;;3.60;99.90;;;;;;5074182;28;20081;-77
2022/03/22 04:03:07;;;;;;;63.63;37.55;;;3.60;99.90;;;;;;5073592;28;20040;-77
2022/03/22 04:05:33;;;;;;;59.58;36.08;;;3.60;99.90;;;;;;5057377;28;20473;-76
2022/03/22 04:07:58;;;;;;;59.75;37.15;;;3.70;99.90;;;;;;5056797;28;20044;-76
2022/03/22 04:10:25;;;;;;;62.40;38.03;;;3.60;99.90;;;;;;5056932;28;20032;-75
2022/03/22 04:12:50;;;;;;;57.75;36.15;;;3.60;99.90;;;;;;5073158;28;20512;-76
2022/03/22 04:15:16;;;;;;;65.63;37.97;;;3.60;99.90;;;;;;5056573;28;20039;-77
2022/03/22 04:17:42;;;;;;;59.92;36.90;;;3.60;99.90;;;;;;5057100;28;20151;-76
2022/03/22 04:20:08;;;;;;;65.75;39.05;;;3.60;99.90;;;;;;5056581;28;20043;-76
2022/03/22 04:22:35;;;;;;;64.32;37.15;;;3.60;99.90;;;;;;5056741;28;20036;-76
2022/03/22 04:25:00;;;;;;;59.78;37.55;;;3.60;99.90;;;;;;5073872;28;20075;-76
2022/03/22 04:32:54;;;;;;;60.13;36.28;;;3.60;99.90;;;;;;5072932;28;20051;-76
2022/03/22 04:35:27;;;;;;;62.67;39.00;;;3.60;99.90;;;;;;5073432;28;20112;-76
2022/03/22 04:37:54;;;;;;;64.30;37.55;;;3.60;99.90;;;;;;5057401;28;20072;-76
2022/03/22 04:40:20;;;;;;;63.08;38.70;;;3.50;99.90;;;;;;5056308;28;20504;-76
2022/03/22 04:42:47;;;;;;;61.72;38.67;;;3.50;99.90;;;;;;5065853;22;20037;-79
2022/03/22 04:45:13;;;;;;;64.13;39.13;;;3.50;99.90;;;;;;5053300;28;20036;-79
2022/03/22 04:47:39;;;;;;;59.05;36.50;;;3.50;99.90;;;;;;5053607;28;20040;-80
2022/03/22 04:50:07;;;;;;;63.15;38.80;;;3.50;99.90;;;;;;5053291;28;20455;-80
2022/03/22 04:58:02;;;;;;;65.60;39.85;;;3.50;99.90;;;;;;5053495;28;20076;-80
2022/03/22 05:00:27;;;;;;;70.63;41.15;;;3.50;99.90;;;;;;5036453;28;20115;-79
2022/03/22 05:02:53;;;;;;;66.70;38.33;;;3.50;99.90;;;;;;5036254;28;20446;-80
2022/03/22 05:06:25;;;;;;;64.82;39.55;;;3.50;99.90;;;;;;5036924;28;20410;-79
2022/03/22 05:08:04;;;;;;;65.60;39.58;;;3.50;99.90;;;;;;5052985;28;20486;-80
2022/03/22 05:10:35;;;;;;;66.75;40.45;;;3.50;99.90;;;;;;5045803;28;20548;-79
2022/03/22 05:13:01;;;;;;;64.53;39.10;;;3.40;99.90;;;;;;5052992;28;20055;-80
2022/03/22 05:15:26;;;;;;;70.60;40.70;;;3.40;99.90;;;;;;5053460;28;20482;-79
2022/03/22 05:17:52;;;;;;;63.75;38.05;;;3.50;99.90;;;;;;5036835;28;20036;-79
2022/03/22 05:20:17;;;;;;;62.60;39.67;;;3.50;99.90;;;;;;5036298;28;20036;-80
2022/03/22 05:22:43;;;;;;;62.83;37.60;;;3.50;99.90;;;;;;5052447;28;20044;-80
2022/03/22 05:25:09;;;;;;;68.60;39.92;;;3.50;99.90;;;;;;5053395;28;20041;-79
2022/03/22 05:27:37;;;;;;;67.80;40.10;;;3.50;99.90;;;;;;5037968;28;20111;-79
2022/03/22 05:30:06;;;;;;;62.40;39.22;;;3.40;99.90;;;;;;5040232;28;20478;-79
2022/03/22 05:32:32;;;;;;;60.85;39.25;;;3.40;99.90;;;;;;5057280;28;20495;-79
2022/03/22 05:34:58;;;;;;;64.72;39.50;;;3.50;99.90;;;;;;5056780;28;20051;-79
2022/03/22 05:37:24;;;;;;;60.42;38.97;;;3.40;99.90;;;;;;5040094;28;20025;-79
2022/03/22 05:39:49;;;;;;;68.07;41.33;;;3.40;99.90;;;;;;5040384;28;20514;-79
2022/03/22 05:42:15;;;;;;;65.30;40.05;;;3.40;99.90;;;;;;5039862;28;20387;-79
2022/03/22 05:44:41;;;;;;;67.75;39.63;;;3.40;99.90;;;;;;5056942;28;20036;-79
2022/03/22 05:47:07;;;;;;;63.78;38.72;;;3.40;99.90;;;;;;5056223;28;20039;-78
2022/03/22 05:49:33;;;;;;;65.65;40.53;;;3.40;99.90;;;;;;5040411;28;20068;-78
2022/03/22 05:51:59;;;;;;;65.60;40.75;;;3.40;99.90;;;;;;5040172;28;20040;-79
2022/03/22 05:54:25;;;;;;;67.70;40.20;;;3.40;99.90;;;;;;5039866;28;20454;-79
2022/03/22 05:56:51;;;;;;;66.20;40.92;;;3.40;99.90;;;;;;5056311;28;20127;-78
2022/03/22 05:59:16;;;;;;;68.35;41.83;;;3.50;99.90;;;;;;5039831;28;20033;-79
2022/03/22 06:01:44;;;;;;;65.88;39.88;;;3.50;99.90;;;;;;5056503;28;20136;-79
2022/03/22 06:04:10;;;;;;;62.55;38.92;;;3.50;99.90;;;;;;5055838;28;20036;-79
2022/03/22 06:06:36;;;;;;;62.72;39.38;;;3.50;99.90;;;;;;5056283;28;20049;-79
2022/03/22 06:09:02;;;;;;;57.67;37.67;;;3.60;99.90;;;;;;5039696;28;20045;-79
2022/03/22 06:11:29;;;;;;;66.70;40.10;;;3.60;99.90;;;;;;5039805;28;20041;-79
2022/03/22 06:13:54;;;;;;;67.28;40.53;;;3.60;99.90;;;;;;5038988;28;20122;-79
2022/03/22 06:16:20;;;;;;;65.22;41.97;;;3.70;99.90;;;;;;5039791;28;20182;-80
2022/03/22 06:18:46;;;;;;;65.30;40.85;;;3.70;99.90;;;;;;5055793;28;20037;-79
2022/03/22 06:21:11;;;;;;;63.92;41.15;;;3.80;99.90;;;;;;5039921;28;20036;-80
2022/03/22 06:23:37;;;;;;;65.35;40.45;;;3.80;99.90;;;;;;5056065;28;20156;-79
2022/03/22 06:26:02;;;;;;;65.55;39.33;;;3.90;99.90;;;;;;5055164;28;20040;-76
2022/03/22 06:28:28;;;;;;;64.20;39.42;;;3.90;99.90;;;;;;5038922;28;20040;-80
2022/03/22 06:30:54;;;;;;;60.63;38.88;;;4.00;99.90;;;;;;5038448;28;20036;-76
2022/03/22 06:33:22;;;;;;;61.08;39.35;;;4.00;99.90;;;;;;5052332;28;20119;-77
2022/03/22 06:35:48;;;;;;;63.03;39.55;;;4.10;99.90;;;;;;5037924;28;20041;-76
2022/03/22 06:38:14;;;;;;;64.22;40.80;;;4.20;99.90;;;;;;5070815;28;20093;-77
2022/03/22 06:40:40;;;;;;;63.80;40.35;;;4.30;99.90;;;;;;5036020;28;20128;-77
2022/03/22 06:43:11;;;;;;;65.15;37.47;;;4.40;99.90;;;;;;5052172;28;20072;-77
2022/03/22 06:45:37;;;;;;;62.65;41.03;;;4.40;99.90;;;;;;5058052;28;20040;-77
2022/03/22 06:48:05;;;;;;;60.58;39.30;;;4.60;99.90;;;;;;5040554;28;20068;-77
2022/03/22 06:50:31;;;;;;;58.90;38.65;;;4.60;99.90;;;;;;5031210;28;20035;-77
2022/03/22 06:52:57;;;;;;;57.55;38.45;;;4.70;99.90;;;;;;5052429;28;20169;-77
2022/03/22 06:55:22;;;;;;;61.10;39.75;;;4.80;99.90;;;;;;5035547;28;20083;-77
2022/03/22 06:57:52;;;;;;;55.10;36.83;;;4.90;99.90;;;;;;5050139;28;20036;-77
2022/03/22 07:00:19;;;;;;;63.80;38.40;;;5.00;99.90;;;;;;5054375;28;20402;-77
2022/03/22 07:02:47;;;;;;;60.00;38.53;;;5.10;99.90;;;;;;5053984;28;20047;-77
2022/03/22 07:05:13;;;;;;;58.28;37.15;;;5.20;99.90;;;;;;5054193;28;20403;-77
2022/03/22 07:07:39;;;;;;;56.67;38.20;;;5.30;99.90;;;;;;5054500;28;20032;-77
2022/03/22 07:10:07;;;;;;;52.03;37.08;;;5.40;99.90;;;;;;5054926;28;20048;-77
2022/03/22 07:12:33;;;;;;;54.95;36.28;;;5.50;99.90;;;;;;5053471;28;20033;-77
2022/03/22 07:14:58;;;;;;;54.53;37.63;;;5.60;99.90;;;;;;5054098;28;20040;-77
2022/03/22 07:17:24;;;;;;;55.60;36.75;;;5.70;99.90;;;;;;5038034;28;20032;-77
2022/03/22 07:19:51;;;;;;;54.17;35.80;;;5.90;99.90;;;;;;5055024;28;20406;-76
2022/03/22 07:22:17;;;;;;;49.17;34.42;;;6.10;99.90;;;;;;5054363;28;20537;-77
2022/03/22 07:24:42;;;;;;;53.15;34.40;;;6.10;99.90;;;;;;5053830;28;20036;-77
2022/03/22 07:27:08;;;;;;;53.25;34.42;;;6.30;99.90;;;;;;5054111;28;20048;-77
2022/03/22 07:29:34;;;;;;;50.20;33.90;;;6.40;99.90;;;;;;5053611;28;20044;-76
2022/03/22 07:31:59;;;;;;;47.25;34.17;;;6.60;99.90;;;;;;5053402;28;20540;-76
2022/03/22 07:34:26;;;;;;;50.30;34.35;;;6.70;99.90;;;;;;5036800;28;20502;-76
2022/03/22 07:36:52;;;;;;;48.58;32.95;;;6.80;99.90;;;;;;5053631;28;20039;-76
2022/03/22 07:39:20;;;;;;;51.17;34.40;;;7.00;99.90;;;;;;5037646;28;20040;-77
2022/03/22 07:41:46;;;;;;;48.42;33.85;;;7.10;99.90;;;;;;5053110;28;20040;-76
2022/03/22 07:44:12;;;;;;;45.08;31.73;;;7.30;99.90;;;;;;5035620;28;20037;-77
2022/03/22 07:46:39;;;;;;;45.45;32.03;;;7.40;99.90;;;;;;5034770;28;20079;-77
2022/03/22 07:54:33;;;;;;;47.33;31.20;;;7.90;99.90;;;;;;5053581;28;20047;-77
2022/03/22 07:56:58;;;;;;;43.97;31.83;;;8.00;99.90;;;;;;5037203;28;20029;-76
2022/03/22 07:59:25;;;;;;;44.58;30.58;;;8.10;99.90;;;;;;5036881;28;20033;-77
2022/03/22 08:01:51;;;;;;;41.63;30.02;;;8.20;99.90;;;;;;5053514;28;20085;-77
2022/03/22 08:04:17;;;;;;;43.35;30.60;;;8.40;99.90;;;;;;5036901;28;20044;-77
2022/03/22 08:06:43;;;;;;;43.30;31.33;;;8.50;99.90;;;;;;5049166;28;20055;-77
2022/03/22 08:09:09;;;;;;;48.42;32.10;;;8.60;99.90;;;;;;5052322;28;20036;-78
2022/03/22 08:11:35;;;;;;;43.05;31.80;;;8.80;99.90;;;;;;5055023;28;20081;-79
2022/03/22 08:14:02;;;;;;;41.53;30.27;;;8.90;99.90;;;;;;5029359;28;20120;-78
2022/03/22 08:16:28;;;;;;;43.40;31.98;;;9.00;99.90;;;;;;5034208;28;20044;-75
2022/03/22 08:18:54;;;;;;;41.15;30.33;;;9.10;99.90;;;;;;5053629;28;20043;-76
2022/03/22 08:21:20;;;;;;;43.08;30.23;;;9.20;99.90;;;;;;5036684;28;20040;-76
2022/03/22 08:23:45;;;;;;;41.03;28.98;;;9.30;99.90;;;;;;5053696;28;20048;-75
2022/03/22 08:26:11;;;;;;;42.83;28.90;;;9.40;99.90;;;;;;5054025;28;20036;-75
2022/03/22 08:28:37;;;;;;;38.83;28.45;;;9.50;99.90;;;;;;5036895;28;20048;-75
2022/03/22 08:31:02;;;;;;;37.75;28.30;;;9.60;99.90;;;;;;5037417;28;20421;-77
2022/03/22 08:33:28;;;;;;;38.80;29.48;;;9.80;99.90;;;;;;5036972;28;20032;-76
2022/03/22 08:35:54;;;;;;;40.03;28.13;;;9.90;99.90;;;;;;5053548;28;20033;-76
2022/03/22 08:38:21;;;;;;;39.20;28.88;;;10.10;99.90;;;;;;5053454;28;20062;-77
2022/03/22 08:40:47;;;;;;;38.65;28.20;;;10.20;99.90;;;;;;5053250;28;20082;-76
2022/03/22 08:43:13;;;;;;;39.22;29.20;;;10.30;99.90;;;;;;5033676;28;20040;-77
2022/03/22 08:45:39;;;;;;;39.03;28.75;;;10.50;99.90;;;;;;5053214;28;20056;-76
2022/03/22 08:48:12;;;;;;;38.63;27.40;;;10.70;99.90;;;;;;5051940;28;20040;-76
2022/03/22 08:50:43;;;;;;;35.10;26.75;;;10.80;99.90;;;;;;5052124;28;20036;-76
2022/03/22 08:53:09;;;;;;;35.03;25.45;;;11.00;99.90;;;;;;5049401;28;20119;-77
2022/03/22 08:55:36;;;;;;;37.75;27.13;;;11.10;99.90;;;;;;5046016;28;20037;-76
2022/03/22 08:58:08;;;;;;;36.80;26.65;;;11.30;99.90;;;;;;5052029;28;20044;-76
2022/03/22 09:00:34;;;;;;;35.83;26.10;;;11.50;99.90;;;;;;5037104;28;20140;-76
2022/03/22 09:03:01;;;;;;;31.98;25.10;;;11.70;99.90;;;;;;5056781;28;20469;-76
2022/03/22 09:08:11;;;;;;;29.23;23.73;;;13.00;99.90;;;;;;5049527;28;20560;-76
2022/03/22 09:10:36;;;;;;;31.27;24.77;;;13.80;99.90;;;;;;5052743;28;20037;-76
2022/03/22 09:13:03;;;;;;;30.52;25.55;;;14.50;99.90;;;;;;5044454;28;20033;-76
2022/03/22 09:15:30;;;;;;;29.83;24.42;;;15.10;99.90;;;;;;5040401;28;20047;-76
2022/03/22 09:17:57;;;;;;;31.98;24.75;;;15.70;99.90;;;;;;5055946;28;20051;-76
2022/03/22 09:20:24;;;;;;;34.53;25.05;;;16.20;99.90;;;;;;5056885;28;20049;-76
2022/03/22 09:22:51;;;;;;;29.85;24.42;;;16.70;99.90;;;;;;5055499;28;20044;-76
2022/03/22 09:25:18;;;;;;;30.10;23.75;;;17.20;99.90;;;;;;5037015;28;20124;-76
2022/03/22 09:27:44;;;;;;;28.05;24.25;;;17.60;99.90;;;;;;5033303;28;20040;-76
2022/03/22 09:30:11;;;;;;;27.08;23.67;;;17.90;99.90;;;;;;5049424;28;20048;-76
2022/03/22 09:32:38;;;;;;;30.00;24.15;;;18.40;99.90;;;;;;5056238;28;20051;-76
2022/03/22 09:35:10;;;;;;;29.02;23.92;;;18.60;98.40;;;;;;5039817;28;20463;-76
2022/03/22 09:37:41;;;;;;;28.30;23.77;;;19.00;97.40;;;;;;5056788;28;20376;-76
2022/03/22 09:40:09;;;;;;;27.50;23.48;;;19.30;96.70;;;;;;5039424;28;20041;-76
2022/03/22 09:42:37;;;;;;;27.67;24.50;;;19.40;95.10;;;;;;5037773;28;20124;-77
2022/03/22 09:45:04;;;;;;;27.35;23.95;;;19.60;93.90;;;;;;5051430;28;20094;-77
2022/03/22 09:47:29;;;;;;;28.15;24.52;;;19.90;92.50;;;;;;5040037;28;20429;-76
2022/03/22 09:49:55;;;;;;;27.08;24.08;;;20.30;90.90;;;;;;5055679;28;20041;-77
2022/03/22 09:52:22;;;;;;;27.52;24.30;;;20.50;90.90;;;;;;5055883;28;20036;-75
2022/03/22 09:54:47;;;;;;;27.17;23.45;;;20.70;85.80;;;;;;5039208;28;20048;-74
2022/03/22 09:57:13;;;;;;;27.10;22.50;;;21.00;84.60;;;;;;5055705;28;20025;-74
2022/03/22 09:59:39;;;;;;;25.95;22.45;;;21.10;80.70;;;;;;5056245;28;20525;-75
2022/03/22 10:02:05;;;;;;;26.30;22.05;;;21.30;76.00;;;;;;5055757;28;20403;-75
2022/03/22 10:04:41;;;;;;;27.80;22.25;;;21.30;71.60;;;;;;5055690;28;20414;-75
2022/03/22 10:07:15;;;;;;;25.98;23.17;;;21.60;63.80;;;;;;5038905;28;20082;-75
2022/03/22 10:09:41;;;;;;;26.05;22.67;;;21.60;67.90;;;;;;5039076;28;20078;-75
2022/03/22 10:12:08;;;;;;;26.48;22.83;;;21.90;70.00;;;;;;5037733;28;20137;-75
2022/03/22 10:14:39;;;;;;;24.98;22.27;;;22.00;65.60;;;;;;5038783;28;20043;-75
2022/03/22 10:17:28;;;;;;;25.80;23.08;;;22.20;60.40;;;;;;5055770;28;20036;-75
2022/03/22 10:19:53;;;;;;;26.35;22.33;;;22.30;56.00;;;;;;5039322;28;20530;-75
2022/03/22 10:22:24;;;;;;;25.25;22.58;;;22.40;60.50;;;;;;5055572;28;20079;-75
2022/03/22 10:24:52;;;;;;;24.20;21.60;;;22.50;59.30;;;;;;5055203;28;20085;-75
2022/03/22 10:27:25;;;;;;;26.15;21.33;;;22.70;58.10;;;;;;5055844;28;20432;-75
2022/03/22 10:29:52;;;;;;;24.73;22.15;;;22.80;54.90;;;;;;5055639;28;20490;-75
2022/03/22 10:32:28;;;;;;;25.02;22.35;;;22.80;55.60;;;;;;5039017;28;20051;-75
2022/03/22 10:34:53;;;;;;;25.17;22.40;;;23.00;55.20;;;;;;5038506;28;20418;-75
2022/03/22 10:37:29;;;;;;;23.90;21.42;;;23.00;54.60;;;;;;5038921;28;20036;-76
2022/03/22 10:39:54;;;;;;;23.73;19.95;;;23.20;54.20;;;;;;5055694;28;20045;-76
2022/03/22 10:42:23;;;;;;;23.88;20.80;;;23.30;53.80;;;;;;5038681;28;20055;-75
2022/03/22 10:44:50;;;;;;;24.65;22.02;;;23.60;53.80;;;;;;5058068;28;20098;-77
2022/03/22 10:47:27;;;;;;;24.65;22.08;;;23.80;53.30;;;;;;5057303;28;20402;-75
2022/03/22 10:50:05;;;;;;;25.50;22.98;;;24.10;49.10;;;;;;5041160;28;20522;-75
2022/03/22 10:52:37;;;;;;;25.02;22.40;;;23.90;49.30;;;;;;5057991;28;20032;-76
2022/03/22 10:55:04;;;;;;;25.53;22.87;;;23.80;51.80;;;;;;5056952;28;20506;-76
2022/03/22 10:57:32;;;;;;;24.20;21.75;;;23.80;52.20;;;;;;5057200;28;20055;-76
2022/03/22 11:00:02;;;;;;;23.58;20.85;;;24.10;50.90;;;;;;5057549;28;20053;-75
2022/03/22 11:02:33;;;;;;;24.20;21.67;;;24.20;49.70;;;;;;5040132;28;20086;-77
2022/03/22 11:05:04;;;;;;;24.88;22.33;;;24.30;49.70;;;;;;5055362;28;20048;-76
2022/03/22 11:07:35;;;;;;;24.92;22.10;;;24.40;49.40;;;;;;5055730;28;20044;-78
2022/03/22 11:10:01;;;;;;;23.75;21.05;;;24.50;49.10;;;;;;5055723;28;20403;-77
2022/03/22 11:12:27;;;;;;;24.27;21.60;;;24.80;48.20;;;;;;5056031;28;20040;-76
2022/03/22 11:14:55;;;;;;;23.08;20.15;;;24.80;48.40;;;;;;5048480;28;20040;-76
2022/03/22 11:17:28;;;;;;;22.63;20.23;;;25.00;47.70;;;;;;5045656;28;20033;-75
2022/03/22 11:19:55;;;;;;;24.73;20.52;;;25.00;47.30;;;;;;5040577;28;20064;-75
2022/03/22 11:22:22;;;;;;;23.17;19.85;;;25.10;47.00;;;;;;5047795;28;20093;-76
2022/03/22 11:24:48;;;;;;;23.95;21.00;;;25.00;46.70;;;;;;5056126;28;20090;-77
2022/03/22 11:27:13;;;;;;;25.20;21.60;;;25.20;47.30;;;;;;5034360;28;20045;-75
2022/03/22 11:29:41;;;;;;;25.35;22.00;;;25.40;47.40;;;;;;5041928;28;20102;-76
2022/03/22 11:34:57;;;;;;;22.35;19.95;;;25.80;47.40;;;;;;5043040;28;20048;-74
2022/03/22 11:37:30;;;;;;;25.10;21.83;;;25.70;45.30;;;;;;5057051;28;20166;-75
2022/03/22 11:42:54;;;;;;;23.55;20.75;;;25.80;45.10;;;;;;5056132;28;20074;-76
2022/03/22 11:45:20;;;;;;;23.13;20.67;;;25.80;43.40;;;;;;5056785;28;20048;-77
2022/03/22 11:47:51;;;;;;;22.13;19.70;;;25.90;44.20;;;;;;5056448;28;20037;-76
2022/03/22 11:50:18;;;;;;;23.73;20.92;;;25.90;44.40;;;;;;5056701;28;20044;-76
2022/03/22 11:52:45;;;;;;;24.77;22.00;;;25.90;42.80;;;;;;5056655;28;20098;-76
2022/03/22 11:55:15;;;;;;;27.30;22.83;;;25.80;42.20;;;;;;5038746;28;20433;-76
2022/03/22 11:57:49;;;;;;;25.42;21.63;;;25.70;44.10;;;;;;5054851;28;20040;-76
2022/03/22 12:00:17;;;;;;;23.55;20.45;;;25.70;44.30;;;;;;5038748;28;20049;-76
2022/03/22 12:02:51;;;;;;;25.40;21.73;;;26.00;43.30;;;;;;5054788;28;20124;-76
2022/03/22 12:05:18;;;;;;;30.30;22.35;;;26.20;43.70;;;;;;5039053;28;20048;-76
2022/03/22 12:07:46;;;;;;;25.67;21.88;;;26.30;43.70;;;;;;5055404;28;20036;-76
2022/03/22 12:10:15;;;;;;;24.83;22.02;;;26.50;43.40;;;;;;5054004;28;20455;-75
2022/03/22 12:12:48;;;;;;;26.35;21.35;;;26.70;43.60;;;;;;5055136;28;20044;-76
2022/03/22 12:15:16;;;;;;;26.40;21.92;;;26.80;43.30;;;;;;5054754;28;20040;-76
2022/03/22 12:17:43;;;;;;;24.63;21.98;;;26.80;41.90;;;;;;5038675;28;20115;-76
2022/03/22 12:20:12;;;;;;;26.85;22.27;;;26.60;42.60;;;;;;5055190;28;20523;-75
2022/03/22 12:22:41;;;;;;;26.58;21.60;;;26.60;40.10;;;;;;5037200;28;20040;-76
2022/03/22 12:25:09;;;;;;;23.73;20.23;;;26.30;42.80;;;;;;5055206;28;20040;-75
2022/03/22 12:27:35;;;;;;;28.88;22.20;;;26.20;42.90;;;;;;5054685;28;20051;-75
2022/03/22 12:30:00;;;;;;;26.25;22.75;;;26.30;43.30;;;;;;5054571;28;20111;-76
2022/03/22 12:32:27;;;;;;;27.60;22.05;;;26.20;42.70;;;;;;5054931;28;20032;-76
2022/03/22 12:34:53;;;;;;;24.35;21.55;;;26.20;42.30;;;;;;5054728;28;20041;-76
2022/03/22 12:37:19;;;;;;;26.02;20.33;;;26.20;42.40;;;;;;5054626;28;20040;-78
2022/03/22 12:39:46;;;;;;;27.90;19.65;;;26.20;43.30;;;;;;5053860;28;20040;-77
2022/03/22 12:42:15;;;;;;;24.95;19.77;;;26.40;42.70;;;;;;5009541;28;20447;-78
2022/03/22 12:44:41;;;;;;;25.48;21.08;;;26.70;41.60;;;;;;5045815;28;20123;-78
2022/03/22 12:47:08;;;;;;;25.30;22.10;;;26.70;40.80;;;;;;5055059;28;20604;-78
2022/03/22 12:49:35;;;;;;;23.05;20.00;;;26.70;41.10;;;;;;5037422;28;20120;-78
2022/03/22 12:52:02;;;;;;;26.73;20.52;;;26.70;41.90;;;;;;5054299;28;20029;-78
2022/03/22 12:54:36;;;;;;;26.10;18.63;;;27.00;42.20;;;;;;5055302;28;20049;-78
2022/03/22 12:57:08;;;;;;;26.65;19.42;;;27.20;40.80;;;;;;5054818;28;20059;-78
2022/03/22 12:59:34;;;;;;;24.23;18.63;;;27.20;41.70;;;;;;5054422;28;20080;-78
2022/03/22 13:02:00;;;;;;;24.77;20.35;;;27.40;40.30;;;;;;5055969;28;20032;-78
2022/03/22 13:04:31;;;;;;;23.55;19.15;;;27.20;37.30;;;;;;5056140;28;20040;-79
2022/03/22 13:07:02;;;;;;;21.17;17.92;;;26.60;39.20;;;;;;5035362;28;20113;-79
2022/03/22 13:12:14;;;;;;;24.20;18.73;;;26.50;39.50;;;;;;5054541;28;20036;-79
2022/03/22 13:17:29;;;;;;;26.33;19.27;;;26.60;40.00;;;;;;5057718;28;20044;-79